createdAt,value
2023-03-11T00:00:47.648Z,96800.44
2023-03-11T00:01:49.562Z,96792.66
2023-03-11T00:02:52.431Z,96802.22
2023-03-11T00:03:54.164Z,96813.00
2023-03-11T00:04:55.720Z,96807.28
2023-03-11T00:05:58.577Z,96813.53
2023-03-11T00:07:00.205Z,96806.28
2023-03-11T00:08:01.901Z,96815.50
2023-03-11T00:09:03.870Z,96813.41
2023-03-11T00:10:06.663Z,96821.41
2023-03-11T00:11:08.495Z,96821.16
2023-03-11T00:12:09.971Z,96810.72
2023-03-11T00:13:12.276Z,96815.72
2023-03-11T00:14:13.792Z,96820.91
2023-03-11T00:15:15.338Z,96831.97
2023-03-11T00:16:17.201Z,96829.84
2023-03-11T00:17:18.723Z,96834.25
2023-03-11T00:18:20.221Z,96842.97
2023-03-11T00:19:21.805Z,96826.78
2023-03-11T00:20:31.417Z,96842.66
2023-03-11T00:21:33.886Z,96840.91
2023-03-11T00:22:35.444Z,96851.03
2023-03-11T00:23:36.981Z,96835.47
2023-03-11T00:24:38.501Z,96852.41
2023-03-11T00:25:40.035Z,96842.28
2023-03-11T00:26:41.538Z,96834.91
2023-03-11T00:27:43.254Z,96845.81
2023-03-11T00:28:44.792Z,96865.97
2023-03-11T00:29:46.306Z,96861.75
2023-03-11T00:30:47.970Z,96845.81
2023-03-11T00:31:49.461Z,96858.28
2023-03-11T00:32:52.182Z,96851.66
2023-03-11T00:33:53.855Z,96873.66
2023-03-11T00:34:55.319Z,96871.09
2023-03-11T00:35:57.213Z,96865.63
2023-03-11T00:36:58.829Z,96877.41
2023-03-11T00:38:02.736Z,96873.75
2023-03-11T00:39:06.655Z,96879.69
2023-03-11T00:40:13.575Z,96879.69
2023-03-11T00:41:15.406Z,96890.50
2023-03-11T00:42:16.902Z,96890.38
2023-03-11T00:43:18.444Z,96887.25
2023-03-11T00:44:19.926Z,96883.19
2023-03-11T00:45:21.467Z,96886.56
2023-03-11T00:46:23.303Z,96887.94
2023-03-11T00:47:24.872Z,96897.59
2023-03-11T00:48:26.595Z,96900.50
2023-03-11T00:49:28.088Z,96902.88
2023-03-11T00:50:30.927Z,96904.00
2023-03-11T00:51:34.202Z,96902.72
2023-03-11T00:52:35.825Z,96899.00
2023-03-11T00:53:37.457Z,96905.56
2023-03-11T00:54:38.952Z,96904.72
2023-03-11T00:55:40.514Z,96907.41
2023-03-11T00:56:42.028Z,96913.56
2023-03-11T00:57:43.736Z,96898.03
2023-03-11T00:58:45.840Z,96909.81
2023-03-11T00:59:47.343Z,96908.09
2023-03-11T01:00:48.919Z,96915.78
2023-03-11T01:01:50.968Z,96915.22
2023-03-11T01:02:53.264Z,96902.38
2023-03-11T01:03:54.774Z,96909.25
2023-03-11T01:04:56.380Z,96909.88
2023-03-11T01:05:57.959Z,96913.44
2023-03-11T01:06:59.471Z,96918.78
2023-03-11T01:08:01.229Z,96907.19
2023-03-11T01:09:02.800Z,96917.25
2023-03-11T01:10:05.733Z,96916.56
2023-03-11T01:11:08.119Z,96919.06
2023-03-11T01:12:09.644Z,96915.91
2023-03-11T01:13:11.224Z,96914.72
2023-03-11T01:14:12.931Z,96933.84
2023-03-11T01:15:22.827Z,96932.19
2023-03-11T01:16:24.508Z,96914.16
2023-03-11T01:17:26.031Z,96918.81
2023-03-11T01:18:27.586Z,96930.81
2023-03-11T01:19:29.106Z,96931.28
2023-03-11T01:20:30.756Z,96929.75
2023-03-11T01:21:32.270Z,96943.16
2023-03-11T01:22:33.770Z,96935.94
2023-03-11T01:23:35.319Z,96942.09
2023-03-11T01:24:36.864Z,96932.19
2023-03-11T01:25:38.695Z,96942.69
2023-03-11T01:26:40.203Z,96937.69
2023-03-11T01:27:41.850Z,96942.56
2023-03-11T01:28:43.376Z,96942.31
2023-03-11T01:29:44.922Z,96916.72
2023-03-11T01:30:46.506Z,96946.06
2023-03-11T01:31:48.012Z,96938.38
2023-03-11T01:32:49.863Z,96932.66
2023-03-11T01:33:51.436Z,96916.84
2023-03-11T01:34:52.921Z,96918.34
2023-03-11T01:35:54.654Z,96917.41
2023-03-11T01:36:56.200Z,96927.19
2023-03-11T01:37:57.893Z,96926.50
2023-03-11T01:38:59.383Z,96939.88
2023-03-11T01:40:00.878Z,96931.16
2023-03-11T01:41:02.380Z,96947.13
2023-03-11T01:42:04.136Z,96936.28
2023-03-11T01:43:07.047Z,96933.72
2023-03-11T01:44:11.644Z,96944.44
2023-03-11T01:45:34.584Z,96943.34
2023-03-11T01:46:54.328Z,96954.56
2023-03-11T01:47:55.980Z,96954.16
2023-03-11T01:48:59.011Z,96953.03
2023-03-11T01:50:01.243Z,96954.44
2023-03-11T01:51:03.119Z,96953.84
2023-03-11T01:52:07.689Z,96949.53
2023-03-11T01:53:09.316Z,96963.28
2023-03-11T01:54:13.371Z,96961.19
2023-03-11T01:55:15.198Z,96941.06
2023-03-11T01:56:16.875Z,96964.94
2023-03-11T01:57:18.496Z,96963.88
2023-03-11T01:58:27.314Z,96969.59
2023-03-11T01:59:30.659Z,96974.41
2023-03-11T02:00:32.375Z,96965.97
2023-03-11T02:01:35.472Z,96955.50
2023-03-11T02:02:43.258Z,96975.53
2023-03-11T02:03:45.086Z,96981.22
2023-03-11T02:04:46.783Z,96971.09
2023-03-11T02:05:48.345Z,96971.25
2023-03-11T02:06:51.059Z,96979.63
2023-03-11T02:07:54.164Z,96962.72
2023-03-11T02:08:55.719Z,96975.78
2023-03-11T02:09:57.207Z,96980.63
2023-03-11T02:10:58.715Z,96991.38
2023-03-11T02:12:00.231Z,96991.75
2023-03-11T02:13:02.706Z,96990.00
2023-03-11T02:14:04.956Z,96996.72
2023-03-11T02:15:07.159Z,96985.91
2023-03-11T02:16:09.147Z,96996.72
2023-03-11T02:17:10.761Z,96990.09
2023-03-11T02:18:12.615Z,97000.56
2023-03-11T02:19:39.648Z,96996.50
2023-03-11T02:21:07.985Z,97005.25
2023-03-11T02:22:09.471Z,96995.81
2023-03-11T02:23:13.039Z,97007.34
2023-03-11T02:24:18.624Z,97004.06
2023-03-11T02:25:34.065Z,97007.00
2023-03-11T02:26:48.626Z,96998.81
2023-03-11T02:27:50.137Z,97009.75
2023-03-11T02:28:51.599Z,97011.06
2023-03-11T02:29:54.115Z,97003.63
2023-03-11T02:30:55.882Z,97004.19
2023-03-11T02:31:57.334Z,97015.22
2023-03-11T02:32:58.842Z,97015.00
2023-03-11T02:34:00.357Z,97005.31
2023-03-11T02:35:01.911Z,97010.47
2023-03-11T02:36:04.189Z,97005.47
2023-03-11T02:37:07.130Z,97013.84
2023-03-11T02:38:08.644Z,97012.38
2023-03-11T02:39:10.281Z,97010.91
2023-03-11T02:40:30.518Z,97010.00
2023-03-11T02:41:33.244Z,97006.38
2023-03-11T02:42:34.727Z,96999.28
2023-03-11T02:43:43.549Z,97011.06
2023-03-11T02:44:46.897Z,97017.31
2023-03-11T02:45:48.739Z,97007.13
2023-03-11T02:46:50.266Z,97017.97
2023-03-11T02:47:52.924Z,97005.50
2023-03-11T02:48:54.486Z,97011.53
2023-03-11T02:49:56.368Z,97015.00
2023-03-11T02:50:57.915Z,97008.53
2023-03-11T02:51:59.424Z,97023.81
2023-03-11T02:53:00.970Z,97012.59
2023-03-11T02:54:04.339Z,97015.50
2023-03-11T02:55:06.457Z,97013.97
2023-03-11T02:56:07.954Z,97020.53
2023-03-11T02:57:09.475Z,97023.81
2023-03-11T02:58:11.080Z,97027.19
2023-03-11T02:59:12.578Z,97026.50
2023-03-11T03:00:16.574Z,97027.19
2023-03-11T03:01:18.250Z,97023.00
2023-03-11T03:02:19.850Z,97031.28
2023-03-11T03:03:21.368Z,97030.38
2023-03-11T03:04:23.031Z,97025.03
2023-03-11T03:05:24.594Z,97020.13
2023-03-11T03:06:26.322Z,97033.13
2023-03-11T03:07:27.817Z,97022.78
2023-03-11T03:08:29.319Z,97024.19
2023-03-11T03:09:30.817Z,97021.03
2023-03-11T03:10:32.310Z,97029.97
2023-03-11T03:11:33.821Z,97007.38
2023-03-11T03:12:35.324Z,97028.38
2023-03-11T03:13:36.834Z,97038.38
2023-03-11T03:14:38.314Z,97037.31
2023-03-11T03:15:39.862Z,97039.47
2023-03-11T03:16:41.450Z,97029.44
2023-03-11T03:17:43.187Z,97037.13
2023-03-11T03:18:44.725Z,97043.81
2023-03-11T03:19:46.283Z,97050.41
2023-03-11T03:20:47.784Z,97049.88
2023-03-11T03:21:49.624Z,97042.16
2023-03-11T03:22:51.339Z,97040.50
2023-03-11T03:23:52.898Z,97053.00
2023-03-11T03:24:54.409Z,97050.31
2023-03-11T03:25:55.917Z,97043.59
2023-03-11T03:26:57.425Z,97046.84
2023-03-11T03:27:58.921Z,97054.69
2023-03-11T03:29:00.468Z,97049.66
2023-03-11T03:30:02.066Z,97043.50
2023-03-11T03:31:05.260Z,97043.03
2023-03-11T03:32:07.029Z,97048.75
2023-03-11T03:33:08.597Z,97046.00
2023-03-11T03:34:10.098Z,97046.47
2023-03-11T03:35:11.680Z,97060.19
2023-03-11T03:36:14.021Z,97063.03
2023-03-11T03:37:15.626Z,97065.59
2023-03-11T03:38:17.125Z,97062.91
2023-03-11T03:39:20.072Z,97066.25
2023-03-11T03:40:21.940Z,97069.63
2023-03-11T03:41:23.510Z,97047.78
2023-03-11T03:42:25.279Z,97062.44
2023-03-11T03:43:26.786Z,97071.72
2023-03-11T03:44:28.403Z,97060.56
2023-03-11T03:45:29.977Z,97074.50
2023-03-11T03:46:31.463Z,97069.38
2023-03-11T03:47:33.395Z,97079.97
2023-03-11T03:48:35.055Z,97083.13
2023-03-11T03:49:36.583Z,97082.59
2023-03-11T03:50:39.783Z,97094.09
2023-03-11T03:51:41.304Z,97082.81
2023-03-11T03:52:42.971Z,97085.13
2023-03-11T03:53:46.491Z,97081.75
2023-03-11T03:54:48.022Z,97073.28
2023-03-11T03:55:50.891Z,97092.13
2023-03-11T03:56:52.458Z,97100.31
2023-03-11T03:57:53.946Z,97098.19
2023-03-11T03:58:55.543Z,97096.28
2023-03-11T03:59:57.049Z,97096.59
2023-03-11T04:00:58.797Z,97110.84
2023-03-11T04:02:00.557Z,97098.13
2023-03-11T04:03:02.095Z,97100.41
2023-03-11T04:04:03.669Z,97104.38
2023-03-11T04:05:06.000Z,97104.47
2023-03-11T04:06:14.118Z,97099.84
2023-03-11T04:07:15.621Z,97113.91
2023-03-11T04:08:17.240Z,97120.59
2023-03-11T04:09:18.923Z,97123.44
2023-03-11T04:10:20.762Z,97113.25
2023-03-11T04:11:22.373Z,97114.38
2023-03-11T04:12:23.903Z,97118.81
2023-03-11T04:13:25.378Z,97114.88
2023-03-11T04:14:26.872Z,97120.81
2023-03-11T04:15:28.362Z,97101.84
2023-03-11T04:16:29.894Z,97117.19
2023-03-11T04:17:31.398Z,97112.34
2023-03-11T04:18:33.231Z,97116.56
2023-03-11T04:19:34.776Z,97124.97
2023-03-11T04:20:38.803Z,97121.53
2023-03-11T04:21:40.354Z,97125.59
2023-03-11T04:22:42.078Z,97122.94
2023-03-11T04:23:43.553Z,97130.91
2023-03-11T04:24:45.093Z,97142.69
2023-03-11T04:25:46.599Z,97134.44
2023-03-11T04:26:48.091Z,97143.56
2023-03-11T04:27:50.108Z,97142.75
2023-03-11T04:28:51.599Z,97143.38
2023-03-11T04:29:53.396Z,97136.31
2023-03-11T04:30:54.934Z,97135.13
2023-03-11T04:31:56.651Z,97140.22
2023-03-11T04:32:58.312Z,97134.34
2023-03-11T04:33:59.812Z,97140.56
2023-03-11T04:35:01.338Z,97133.94
2023-03-11T04:36:07.014Z,97132.25
2023-03-11T04:37:08.645Z,97141.94
2023-03-11T04:38:10.157Z,97141.50
2023-03-11T04:39:11.674Z,97143.88
2023-03-11T04:40:13.964Z,97139.91
2023-03-11T04:41:15.475Z,97137.28
2023-03-11T04:42:19.086Z,97135.03
2023-03-11T04:43:20.586Z,97134.81
2023-03-11T04:44:22.079Z,97145.56
2023-03-11T04:45:23.957Z,97128.50
2023-03-11T04:46:25.496Z,97148.91
2023-03-11T04:47:27.030Z,97140.63
2023-03-11T04:48:28.531Z,97154.53
2023-03-11T04:49:30.017Z,97155.75
2023-03-11T04:50:31.541Z,97148.38
2023-03-11T04:51:33.047Z,97159.25
2023-03-11T04:52:34.562Z,97158.38
2023-03-11T04:53:36.112Z,97151.53
2023-03-11T04:54:38.001Z,97161.75
2023-03-11T04:55:40.065Z,97155.75
2023-03-11T04:56:41.614Z,97151.19
2023-03-11T04:57:43.292Z,97161.03
2023-03-11T04:58:44.838Z,97143.59
2023-03-11T04:59:46.455Z,97168.84
2023-03-11T05:00:47.959Z,97164.69
2023-03-11T05:01:49.585Z,97171.44
2023-03-11T05:02:51.258Z,97159.94
2023-03-11T05:03:52.834Z,97168.47
2023-03-11T05:04:54.725Z,97177.84
2023-03-11T05:06:00.305Z,97170.53
2023-03-11T05:07:01.861Z,97171.41
2023-03-11T05:08:03.635Z,97173.59
2023-03-11T05:09:05.189Z,97167.09
2023-03-11T05:10:07.203Z,97164.38
2023-03-11T05:11:08.924Z,97171.22
2023-03-11T05:12:11.934Z,97167.13
2023-03-11T05:13:13.430Z,97167.03
2023-03-11T05:14:15.281Z,97173.88
2023-03-11T05:15:17.425Z,97168.91
2023-03-11T05:16:19.016Z,97164.06
2023-03-11T05:17:20.604Z,97174.91
2023-03-11T05:18:22.119Z,97169.84
2023-03-11T05:19:34.094Z,97168.34
2023-03-11T05:20:35.673Z,97168.97
2023-03-11T05:21:37.204Z,97179.09
2023-03-11T05:22:38.829Z,97181.13
2023-03-11T05:23:40.335Z,97188.28
2023-03-11T05:24:42.176Z,97186.31
2023-03-11T05:25:43.736Z,97190.59
2023-03-11T05:26:48.113Z,97196.53
2023-03-11T05:27:49.999Z,97190.84
2023-03-11T05:28:51.499Z,97193.06
2023-03-11T05:29:53.315Z,97203.97
2023-03-11T05:30:54.924Z,97204.78
2023-03-11T05:31:56.472Z,97208.38
2023-03-11T05:32:57.975Z,97197.22
2023-03-11T05:33:59.490Z,97203.25
2023-03-11T05:35:01.654Z,97207.25
2023-03-11T05:36:12.062Z,97200.19
2023-03-11T05:37:13.929Z,97200.16
2023-03-11T05:38:15.439Z,97197.59
2023-03-11T05:39:16.996Z,97205.09
2023-03-11T05:40:18.701Z,97211.06
2023-03-11T05:41:20.201Z,97201.16
2023-03-11T05:42:21.711Z,97201.78
2023-03-11T05:43:23.206Z,97205.72
2023-03-11T05:44:24.856Z,97202.41
2023-03-11T05:45:26.531Z,97193.03
2023-03-11T05:46:28.431Z,97207.38
2023-03-11T05:47:29.959Z,97203.44
2023-03-11T05:48:31.480Z,97192.13
2023-03-11T05:49:33.287Z,97200.44
2023-03-11T05:50:34.806Z,97204.53
2023-03-11T05:51:37.611Z,97199.09
2023-03-11T05:52:39.162Z,97203.53
2023-03-11T05:53:48.238Z,97201.66
2023-03-11T05:54:51.458Z,97207.41
2023-03-11T05:55:59.289Z,97198.78
2023-03-11T05:57:00.815Z,97211.84
2023-03-11T05:58:02.475Z,97210.06
2023-03-11T05:59:04.480Z,97210.06
2023-03-11T06:00:10.444Z,97212.31
2023-03-11T06:01:13.661Z,97223.09
2023-03-11T06:02:15.186Z,97216.88
2023-03-11T06:03:16.669Z,97226.78
2023-03-11T06:04:18.334Z,97215.19
2023-03-11T06:05:19.892Z,97224.31
2023-03-11T06:06:21.655Z,97232.00
2023-03-11T06:07:23.282Z,97213.81
2023-03-11T06:08:24.752Z,97226.16
2023-03-11T06:09:26.403Z,97225.81
2023-03-11T06:10:27.882Z,97233.16
2023-03-11T06:11:29.447Z,97223.66
2023-03-11T06:12:30.945Z,97227.56
2023-03-11T06:13:32.602Z,97233.25
2023-03-11T06:14:34.458Z,97238.56
2023-03-11T06:15:36.601Z,97232.16
2023-03-11T06:16:38.186Z,97237.81
2023-03-11T06:17:39.727Z,97248.13
2023-03-11T06:18:41.318Z,97242.88
2023-03-11T06:19:42.954Z,97250.81
2023-03-11T06:20:44.481Z,97251.31
2023-03-11T06:21:45.963Z,97250.44
2023-03-11T06:22:50.417Z,97253.94
2023-03-11T06:23:51.988Z,97259.78
2023-03-11T06:24:53.860Z,97238.78
2023-03-11T06:25:59.137Z,97254.03
2023-03-11T06:27:00.613Z,97257.53
2023-03-11T06:28:02.081Z,97263.94
2023-03-11T06:29:03.581Z,97255.91
2023-03-11T06:30:05.406Z,97256.78
2023-03-11T06:31:10.782Z,97255.41
2023-03-11T06:32:12.315Z,97262.78
2023-03-11T06:33:15.003Z,97268.25
2023-03-11T06:34:16.512Z,97264.31
2023-03-11T06:35:18.195Z,97259.59
2023-03-11T06:36:20.024Z,97260.06
2023-03-11T06:37:23.638Z,97267.41
2023-03-11T06:38:25.219Z,97270.19
2023-03-11T06:39:26.740Z,97264.06
2023-03-11T06:40:28.327Z,97266.00
2023-03-11T06:41:29.869Z,97278.84
2023-03-11T06:42:31.367Z,97276.69
2023-03-11T06:43:33.597Z,97278.63
2023-03-11T06:44:35.140Z,97278.31
2023-03-11T06:45:36.655Z,97291.16
2023-03-11T06:46:38.358Z,97287.75
2023-03-11T06:47:40.796Z,97288.66
2023-03-11T06:48:42.339Z,97287.31
2023-03-11T06:49:44.052Z,97282.97
2023-03-11T06:50:47.653Z,97289.06
2023-03-11T06:51:49.939Z,97297.09
2023-03-11T06:52:51.446Z,97289.06
2023-03-11T06:53:53.218Z,97291.75
2023-03-11T06:54:54.821Z,97298.72
2023-03-11T06:56:12.779Z,97299.97
2023-03-11T06:57:14.281Z,97306.50
2023-03-11T06:58:15.772Z,97314.31
2023-03-11T06:59:17.323Z,97316.34
2023-03-11T07:00:19.181Z,97317.59
2023-03-11T07:01:22.202Z,97297.13
2023-03-11T07:02:23.710Z,97310.66
2023-03-11T07:03:25.205Z,97313.31
2023-03-11T07:04:27.085Z,97310.50
2023-03-11T07:05:28.648Z,97309.06
2023-03-11T07:06:30.214Z,97313.00
2023-03-11T07:07:31.701Z,97321.31
2023-03-11T07:08:33.549Z,97328.16
2023-03-11T07:09:35.096Z,97317.22
2023-03-11T07:10:36.672Z,97323.34
2023-03-11T07:11:38.208Z,97321.97
2023-03-11T07:12:39.809Z,97324.75
2023-03-11T07:13:42.067Z,97334.31
2023-03-11T07:14:43.576Z,97328.97
2023-03-11T07:15:45.177Z,97334.03
2023-03-11T07:16:46.778Z,97337.66
2023-03-11T07:17:48.317Z,97341.31
2023-03-11T07:18:50.729Z,97337.00
2023-03-11T07:19:52.326Z,97342.84
2023-03-11T07:20:53.808Z,97334.63
2023-03-11T07:21:55.295Z,97332.31
2023-03-11T07:22:56.775Z,97336.13
2023-03-11T07:23:59.758Z,97339.69
2023-03-11T07:25:03.718Z,97343.13
2023-03-11T07:26:05.304Z,97337.91
2023-03-11T07:27:07.251Z,97342.38
2023-03-11T07:28:08.750Z,97348.16
2023-03-11T07:29:10.697Z,97354.13
2023-03-11T07:30:12.905Z,97345.50
2023-03-11T07:31:16.746Z,97353.09
2023-03-11T07:32:19.018Z,97356.72
2023-03-11T07:33:21.542Z,97352.97
2023-03-11T07:34:23.124Z,97353.81
2023-03-11T07:35:24.747Z,97351.28
2023-03-11T07:36:26.320Z,97351.66
2023-03-11T07:37:27.917Z,97361.84
2023-03-11T07:38:29.443Z,97358.50
2023-03-11T07:39:31.011Z,97349.41
2023-03-11T07:40:32.529Z,97353.03
2023-03-11T07:41:35.147Z,97348.88
2023-03-11T07:42:37.008Z,97362.50
2023-03-11T07:43:38.961Z,97358.59
2023-03-11T07:44:40.587Z,97366.59
2023-03-11T07:45:42.113Z,97358.41
2023-03-11T07:46:43.779Z,97368.69
2023-03-11T07:47:45.379Z,97364.22
2023-03-11T07:48:47.181Z,97373.66
2023-03-11T07:49:48.753Z,97372.66
2023-03-11T07:50:50.239Z,97375.91
2023-03-11T07:51:51.756Z,97371.44
2023-03-11T07:52:53.255Z,97376.75
2023-03-11T07:53:55.438Z,97376.22
2023-03-11T07:54:56.971Z,97385.69
2023-03-11T07:55:58.661Z,97374.59
2023-03-11T07:57:00.230Z,97382.63
2023-03-11T07:58:01.735Z,97381.69
2023-03-11T07:59:03.686Z,97388.69
2023-03-11T08:00:05.867Z,97388.00
2023-03-11T08:01:09.307Z,97389.31
2023-03-11T08:02:11.653Z,97376.94
2023-03-11T08:03:13.385Z,97392.38
2023-03-11T08:04:16.855Z,97388.03
2023-03-11T08:05:20.783Z,97389.44
2023-03-11T08:06:27.760Z,97397.34
2023-03-11T08:07:31.644Z,97390.66
2023-03-11T08:08:33.144Z,97409.91
2023-03-11T08:09:35.407Z,97396.25
2023-03-11T08:10:37.860Z,97406.38
2023-03-11T08:11:39.507Z,97401.75
2023-03-11T08:12:41.037Z,97405.00
2023-03-11T08:13:43.233Z,97412.28
2023-03-11T08:14:44.852Z,97408.00
2023-03-11T08:15:46.384Z,97402.88
2023-03-11T08:16:47.916Z,97407.16
2023-03-11T08:17:49.455Z,97407.22
2023-03-11T08:18:51.642Z,97403.88
2023-03-11T08:19:53.393Z,97407.59
2023-03-11T08:20:55.554Z,97407.09
2023-03-11T08:21:57.065Z,97411.66
2023-03-11T08:22:58.978Z,97405.81
2023-03-11T08:24:01.776Z,97406.16
2023-03-11T08:25:03.570Z,97408.31
2023-03-11T08:26:06.149Z,97415.00
2023-03-11T08:27:09.633Z,97411.81
2023-03-11T08:28:11.470Z,97420.09
2023-03-11T08:29:13.051Z,97422.66
2023-03-11T08:30:14.762Z,97417.00
2023-03-11T08:31:20.497Z,97420.78
2023-03-11T08:32:22.065Z,97417.97
2023-03-11T08:33:23.646Z,97421.09
2023-03-11T08:34:27.631Z,97420.06
2023-03-11T08:35:29.547Z,97416.44
2023-03-11T08:36:31.372Z,97429.44
2023-03-11T08:37:32.875Z,97419.25
2023-03-11T08:38:34.447Z,97434.19
2023-03-11T08:39:36.022Z,97436.09
2023-03-11T08:40:37.559Z,97433.88
2023-03-11T08:41:39.217Z,97441.56
2023-03-11T08:42:40.786Z,97440.16
2023-03-11T08:43:42.941Z,97434.88
2023-03-11T08:44:44.659Z,97437.25
2023-03-11T08:45:46.303Z,97440.31
2023-03-11T08:46:47.986Z,97437.97
2023-03-11T08:47:49.529Z,97442.16
2023-03-11T08:48:51.066Z,97443.03
2023-03-11T08:49:52.597Z,97428.25
2023-03-11T08:50:54.868Z,97432.88
2023-03-11T08:51:56.448Z,97440.88
2023-03-11T08:53:00.579Z,97445.81
2023-03-11T08:54:02.177Z,97436.56
2023-03-11T08:55:05.119Z,97438.78
2023-03-11T08:56:06.933Z,97446.16
2023-03-11T08:57:08.458Z,97452.13
2023-03-11T08:58:10.009Z,97451.88
2023-03-11T08:59:11.528Z,97444.38
2023-03-11T09:00:13.431Z,97454.66
2023-03-11T09:01:15.128Z,97463.94
2023-03-11T09:02:16.843Z,97466.63
2023-03-11T09:03:18.714Z,97459.41
2023-03-11T09:04:20.245Z,97467.22
2023-03-11T09:05:21.770Z,97459.06
2023-03-11T09:06:24.459Z,97459.75
2023-03-11T09:07:25.957Z,97475.88
2023-03-11T09:08:28.276Z,97468.19
2023-03-11T09:09:29.784Z,97469.47
2023-03-11T09:10:31.316Z,97480.00
2023-03-11T09:11:32.887Z,97468.56
2023-03-11T09:12:34.391Z,97472.59
2023-03-11T09:13:36.412Z,97476.13
2023-03-11T09:14:39.563Z,97465.81
2023-03-11T09:15:41.486Z,97478.91
2023-03-11T09:16:43.069Z,97470.25
2023-03-11T09:17:44.954Z,97472.34
2023-03-11T09:18:46.538Z,97470.16
2023-03-11T09:19:48.109Z,97477.88
2023-03-11T09:20:49.633Z,97475.63
2023-03-11T09:21:51.166Z,97462.56
2023-03-11T09:22:52.722Z,97477.28
2023-03-11T09:23:54.218Z,97469.94
2023-03-11T09:24:56.905Z,97475.53
2023-03-11T09:25:58.387Z,97470.88
2023-03-11T09:26:59.886Z,97472.50
2023-03-11T09:28:01.410Z,97482.00
2023-03-11T09:29:03.106Z,97483.03
2023-03-11T09:30:05.324Z,97483.94
2023-03-11T09:31:06.855Z,97489.09
2023-03-11T09:32:08.441Z,97482.53
2023-03-11T09:33:10.010Z,97491.31
2023-03-11T09:34:13.957Z,97492.75
2023-03-11T09:35:16.730Z,97487.00
2023-03-11T09:36:20.408Z,97499.97
2023-03-11T09:37:21.956Z,97495.06
2023-03-11T09:38:23.461Z,97498.13
2023-03-11T09:39:25.248Z,97498.44
2023-03-11T09:40:28.389Z,97497.84
2023-03-11T09:41:36.668Z,97500.06
2023-03-11T09:43:08.981Z,97493.88
2023-03-11T09:44:18.896Z,97492.16
2023-03-11T09:45:30.998Z,97491.44
2023-03-11T09:46:49.185Z,97491.56
2023-03-11T09:48:02.583Z,97508.03
2023-03-11T09:49:09.217Z,97494.38
2023-03-11T09:50:42.878Z,97507.22
2023-03-11T09:51:47.029Z,97498.41
2023-03-11T09:53:10.539Z,97506.47
2023-03-11T09:54:12.287Z,97509.78
2023-03-11T09:55:32.986Z,97511.03
2023-03-11T09:56:34.793Z,97510.81
2023-03-11T09:57:36.643Z,97510.94
2023-03-11T09:58:52.766Z,97513.84
2023-03-11T09:59:54.643Z,97530.59
2023-03-11T10:00:56.219Z,97521.78
2023-03-11T10:01:57.799Z,97521.94
2023-03-11T10:03:00.467Z,97526.84
2023-03-11T10:04:10.435Z,97525.06
2023-03-11T10:05:15.016Z,97535.47
2023-03-11T10:06:26.448Z,97527.41
2023-03-11T10:07:36.853Z,97535.75
2023-03-11T10:08:45.876Z,97531.06
2023-03-11T10:09:50.988Z,97530.00
2023-03-11T10:11:06.299Z,97540.63
2023-03-11T10:12:13.700Z,97529.75
2023-03-11T10:13:33.529Z,97520.88
2023-03-11T10:14:43.792Z,97523.13
2023-03-11T10:16:04.490Z,97526.47
2023-03-11T10:17:08.738Z,97523.22
2023-03-11T10:18:49.374Z,97533.63
2023-03-11T10:19:55.490Z,97534.34
2023-03-11T10:21:50.831Z,97530.25
2023-03-11T10:23:31.201Z,97535.53
2023-03-11T10:24:38.565Z,97535.41
2023-03-11T10:25:42.861Z,97537.84
2023-03-11T10:26:50.292Z,97530.66
2023-03-11T10:27:57.257Z,97538.66
2023-03-11T10:29:08.121Z,97550.50
2023-03-11T10:30:19.764Z,97552.19
2023-03-11T10:31:33.332Z,97555.13
2023-03-11T10:32:48.205Z,97551.38
2023-03-11T10:34:00.251Z,97548.16
2023-03-11T10:35:18.017Z,97547.16
2023-03-11T10:36:24.304Z,97538.13
2023-03-11T10:37:47.969Z,97541.53
2023-03-11T10:38:52.252Z,97541.94
2023-03-11T10:39:53.892Z,97528.72
2023-03-11T10:40:56.369Z,97544.72
2023-03-11T10:41:59.760Z,97531.94
2023-03-11T10:43:04.087Z,97532.78
2023-03-11T10:44:16.831Z,97532.47
2023-03-11T10:45:20.123Z,97532.69
2023-03-11T10:46:25.280Z,97533.88
2023-03-11T10:47:27.127Z,97533.66
2023-03-11T10:48:28.715Z,97534.94
2023-03-11T10:49:30.242Z,97535.63
2023-03-11T10:50:32.075Z,97530.94
2023-03-11T10:51:36.583Z,97523.69
2023-03-11T10:53:10.087Z,97539.38
2023-03-11T10:54:43.813Z,97537.38
2023-03-11T10:55:46.781Z,97538.50
2023-03-11T10:56:51.644Z,97535.75
2023-03-11T10:57:53.125Z,97536.56
2023-03-11T10:58:55.128Z,97535.63
2023-03-11T10:59:57.804Z,97544.06
2023-03-11T11:01:16.666Z,97534.22
2023-03-11T11:02:32.747Z,97537.84
2023-03-11T11:03:34.849Z,97542.28
2023-03-11T11:04:38.279Z,97553.25
2023-03-11T11:05:40.053Z,97554.66
2023-03-11T11:06:42.027Z,97550.56
2023-03-11T11:07:47.310Z,97553.44
2023-03-11T11:08:48.810Z,97555.09
2023-03-11T11:10:17.835Z,97560.59
2023-03-11T11:11:23.682Z,97556.72
2023-03-11T11:12:25.188Z,97570.50
2023-03-11T11:13:30.253Z,97572.34
2023-03-11T11:14:52.572Z,97568.84
2023-03-11T11:16:05.110Z,97582.44
2023-03-11T11:17:06.624Z,97570.75
2023-03-11T11:18:19.674Z,97571.41
2023-03-11T11:19:21.163Z,97577.38
2023-03-11T11:20:23.083Z,97568.50
2023-03-11T11:21:52.795Z,97576.56
2023-03-11T11:23:01.612Z,97561.66
2023-03-11T11:24:04.541Z,97564.81
2023-03-11T11:25:24.771Z,97556.50
2023-03-11T11:26:26.699Z,97552.78
2023-03-11T11:27:28.745Z,97557.81
2023-03-11T11:28:30.901Z,97563.78
2023-03-11T11:29:32.498Z,97562.84
2023-03-11T11:30:34.126Z,97565.53
2023-03-11T11:31:36.509Z,97563.66
2023-03-11T11:32:38.194Z,97562.84
2023-03-11T11:33:41.367Z,97560.56
2023-03-11T11:34:43.018Z,97560.81
2023-03-11T11:35:52.595Z,97555.59
2023-03-11T11:36:54.493Z,97549.75
2023-03-11T11:38:00.369Z,97565.19
2023-03-11T11:39:05.115Z,97553.28
2023-03-11T11:40:15.763Z,97553.75
2023-03-11T11:41:18.513Z,97545.69
2023-03-11T11:42:20.239Z,97556.09
2023-03-11T11:43:53.915Z,97563.69
2023-03-11T11:45:03.544Z,97535.00
2023-03-11T11:46:31.993Z,97549.03
2023-03-11T11:47:34.754Z,97548.44
2023-03-11T11:48:45.988Z,97556.75
2023-03-11T11:49:52.964Z,97546.72
2023-03-11T11:50:57.388Z,97551.97
2023-03-11T11:52:16.422Z,97559.53
2023-03-11T11:53:43.252Z,97554.25
2023-03-11T11:55:04.317Z,97558.56
2023-03-11T11:56:05.909Z,97554.13
2023-03-11T11:57:15.242Z,97536.44
2023-03-11T11:58:16.809Z,97554.91
2023-03-11T11:59:20.103Z,97566.16
2023-03-11T12:00:42.734Z,97572.44
2023-03-11T12:02:05.345Z,97558.44
2023-03-11T12:03:45.793Z,97566.41
2023-03-11T12:05:00.981Z,97557.38
2023-03-11T12:06:07.645Z,97555.41
2023-03-11T12:07:21.122Z,97566.03
2023-03-11T12:09:05.412Z,97558.19
2023-03-11T12:10:24.295Z,97564.28
2023-03-11T12:11:54.761Z,97552.34
2023-03-11T12:13:23.159Z,97545.47
2023-03-11T12:14:39.482Z,97549.53
2023-03-11T12:15:50.566Z,97556.22
2023-03-11T12:16:57.032Z,97546.38
2023-03-11T12:18:03.163Z,97544.88
2023-03-11T12:19:12.900Z,97541.34
2023-03-11T12:20:15.791Z,97545.06
2023-03-11T12:21:54.185Z,97546.38
2023-03-11T12:23:17.134Z,97546.50
2023-03-11T12:24:21.636Z,97551.75
2023-03-11T12:25:27.431Z,97541.81
2023-03-11T12:26:28.972Z,97541.81
2023-03-11T12:27:32.428Z,97541.59
2023-03-11T12:28:36.730Z,97542.75
2023-03-11T12:29:42.815Z,97546.09
2023-03-11T12:30:46.761Z,97544.72
2023-03-11T12:31:48.260Z,97550.13
2023-03-11T12:32:57.072Z,97550.38